Terminal Aerodrome Forecast
Issued by NWS

Home | Current Version | Previous Version | Text Only | Print | Product List | Glossary On
Versions: 1 2 3 4 5 6 7 8 9 10 11 12
147
FTUS43 KOAX 211726
TAFBFF
TAF
KBFF 211726Z 2118/2218 28027G36KT P6SM FEW200
     FM220100 28012KT P6SM BKN100=

USA.gov is the U.S. government's official web portal to all federal, state and local government web resources and services.